createdAt,value
2019-05-20T00:03:05.408Z,85.30
2019-05-20T00:07:09.991Z,86.10
2019-05-20T00:11:14.217Z,85.80
2019-05-20T00:15:18.521Z,86.20
2019-05-20T00:19:22.743Z,85.90
2019-05-20T00:23:26.964Z,86.30
2019-05-20T00:27:31.187Z,85.90
2019-05-20T00:31:35.402Z,86.50
2019-05-20T00:35:39.621Z,86.60
2019-05-20T00:39:43.856Z,86.20
2019-05-20T00:43:48.051Z,86.70
2019-05-20T00:47:52.470Z,86.90
2019-05-20T00:51:56.697Z,86.40
2019-05-20T00:56:00.911Z,87.20
2019-05-20T01:00:06.288Z,87.20
2019-05-20T01:04:10.481Z,86.80
2019-05-20T01:08:14.703Z,86.80
2019-05-20T01:12:18.943Z,86.70
2019-05-20T01:16:23.248Z,86.80
2019-05-20T01:20:27.567Z,87.40
2019-05-20T01:24:31.972Z,86.80
2019-05-20T01:28:36.193Z,86.80
2019-05-20T01:32:40.406Z,86.90
2019-05-20T01:36:44.627Z,86.90
2019-05-20T01:40:48.842Z,86.70
2019-05-20T01:44:53.104Z,86.80
2019-05-20T01:48:57.325Z,86.50
2019-05-20T01:53:01.564Z,86.90
2019-05-20T01:57:05.796Z,87.10
2019-05-20T02:01:10.047Z,87.50
2019-05-20T02:05:14.371Z,87.30
2019-05-20T02:09:18.572Z,87.40
2019-05-20T02:13:24.440Z,87.40
2019-05-20T02:17:28.734Z,87.70
2019-05-20T02:21:32.950Z,87.90
2019-05-20T02:25:37.158Z,87.60
2019-05-20T02:29:41.376Z,88.10
2019-05-20T02:33:51.462Z,87.90
2019-05-20T02:37:51.470Z,88.00
2019-05-20T02:41:55.688Z,87.90
2019-05-20T02:45:59.907Z,88.60
2019-05-20T02:50:04.165Z,88.40
2019-05-20T02:54:08.384Z,88.70
2019-05-20T02:58:12.615Z,88.30
2019-05-20T03:02:16.826Z,88.60
2019-05-20T03:06:21.043Z,88.40
2019-05-20T03:10:25.264Z,88.00
2019-05-20T03:14:29.535Z,88.00
2019-05-20T03:18:33.763Z,88.00
2019-05-20T03:22:37.994Z,88.10
2019-05-20T03:26:42.223Z,88.00
2019-05-20T03:30:46.413Z,88.70
2019-05-20T03:34:58.676Z,88.90
2019-05-20T03:38:56.491Z,88.60
2019-05-20T03:43:00.712Z,88.80
2019-05-20T03:47:04.963Z,88.60
2019-05-20T03:51:09.172Z,88.50
2019-05-20T03:55:13.393Z,88.60
2019-05-20T03:59:17.652Z,88.40
2019-05-20T04:03:21.881Z,88.70
2019-05-20T04:07:26.123Z,88.80
2019-05-20T04:11:30.389Z,89.20
2019-05-20T04:15:34.612Z,90.00
2019-05-20T04:19:38.827Z,89.70
2019-05-20T04:23:43.138Z,89.40
2019-05-20T04:27:47.431Z,89.50
2019-05-20T04:31:51.932Z,89.90
2019-05-20T04:35:56.213Z,89.50
2019-05-20T04:40:00.445Z,89.50
2019-05-20T04:44:04.688Z,89.80
2019-05-20T04:48:13.174Z,90.00
2019-05-20T04:52:14.887Z,89.70
2019-05-20T04:56:19.176Z,89.90
2019-05-20T05:00:58.393Z,89.90
2019-05-20T05:05:02.944Z,90.20
2019-05-20T05:09:08.286Z,90.40
2019-05-20T05:13:12.479Z,90.10
2019-05-20T05:17:16.736Z,90.30
2019-05-20T05:21:20.947Z,90.60
2019-05-20T05:25:25.203Z,90.50
2019-05-20T05:29:29.418Z,90.30
2019-05-20T05:33:33.640Z,90.50
2019-05-20T05:37:37.849Z,90.50
2019-05-20T05:41:42.060Z,90.40
2019-05-20T05:45:46.306Z,90.60
2019-05-20T05:49:50.534Z,90.50
2019-05-20T05:53:54.758Z,90.90
2019-05-20T05:57:58.999Z,93.10
2019-05-20T06:02:03.267Z,91.70
2019-05-20T06:06:13.140Z,91.80
2019-05-20T06:10:14.899Z,91.40
2019-05-20T06:14:19.138Z,91.70
2019-05-20T06:18:23.431Z,91.60
2019-05-20T06:22:27.635Z,91.60
2019-05-20T06:26:31.998Z,91.60
2019-05-20T06:30:44.200Z,91.40
2019-05-20T06:34:48.441Z,91.70
2019-05-20T06:39:17.785Z,91.50
2019-05-20T06:43:21.971Z,91.60
2019-05-20T06:47:26.227Z,91.80
2019-05-20T06:51:30.441Z,91.80
2019-05-20T06:55:34.806Z,92.20
2019-05-20T06:59:39.049Z,91.90
2019-05-20T07:03:43.283Z,92.10
2019-05-20T07:07:47.484Z,92.00
2019-05-20T07:11:53.033Z,92.00
2019-05-20T07:15:57.566Z,92.10
2019-05-20T07:20:01.783Z,91.80
2019-05-20T07:24:06.088Z,92.20
2019-05-20T07:28:10.290Z,92.50
2019-05-20T07:32:14.511Z,92.50
2019-05-20T07:36:18.730Z,92.60
2019-05-20T07:40:32.041Z,92.60
2019-05-20T07:44:36.283Z,93.10
2019-05-20T07:48:41.338Z,92.80
2019-05-20T07:52:45.935Z,92.80
2019-05-20T07:56:53.552Z,92.80
2019-05-20T08:00:57.763Z,92.90
2019-05-20T08:05:02.198Z,93.00
2019-05-20T08:09:07.643Z,92.90
2019-05-20T08:13:11.860Z,93.00
2019-05-20T08:17:16.071Z,93.20
2019-05-20T08:21:20.313Z,93.10
2019-05-20T08:25:24.545Z,93.30
2019-05-20T08:29:28.744Z,93.30
2019-05-20T08:33:32.969Z,93.30
2019-05-20T08:37:45.335Z,93.40
2019-05-20T08:41:43.130Z,93.90
2019-05-20T08:45:47.403Z,93.60
2019-05-20T08:49:51.933Z,94.00
2019-05-20T08:53:56.429Z,94.00
2019-05-20T08:58:00.652Z,93.80
2019-05-20T09:02:04.866Z,93.90
2019-05-20T09:06:09.088Z,93.90
2019-05-20T09:10:13.512Z,94.70
2019-05-20T09:14:17.726Z,94.90
2019-05-20T09:18:21.959Z,94.40
2019-05-20T09:22:26.190Z,94.50
2019-05-20T09:26:30.399Z,94.30
2019-05-20T09:30:34.596Z,94.50
2019-05-20T09:34:38.815Z,94.60
2019-05-20T09:38:43.067Z,94.70
2019-05-20T09:42:47.283Z,95.10
2019-05-20T09:46:51.624Z,94.80
2019-05-20T09:50:55.848Z,94.80
2019-05-20T09:55:00.107Z,95.20
2019-05-20T09:59:04.356Z,95.00
2019-05-20T10:03:08.589Z,95.20
2019-05-20T10:07:12.812Z,94.40
2019-05-20T10:11:17.040Z,95.20
2019-05-20T10:15:21.444Z,95.30
2019-05-20T10:19:25.699Z,95.30
2019-05-20T10:23:29.887Z,95.30
2019-05-20T10:27:34.107Z,95.30
2019-05-20T10:31:38.326Z,95.50
2019-05-20T10:35:42.546Z,95.50
2019-05-20T10:39:46.746Z,95.50
2019-05-20T10:43:50.980Z,95.60
2019-05-20T10:47:55.224Z,95.60
2019-05-20T10:51:59.455Z,95.90
2019-05-20T10:56:03.711Z,95.80
2019-05-20T11:00:09.089Z,95.80
2019-05-20T11:04:13.316Z,95.80
2019-05-20T11:08:17.552Z,95.30
2019-05-20T11:12:21.791Z,95.70
2019-05-20T11:16:25.990Z,95.80
2019-05-20T11:20:30.254Z,95.70
2019-05-20T11:24:34.295Z,96.30
2019-05-20T11:28:38.515Z,96.10
2019-05-20T11:32:43.035Z,96.10
2019-05-20T11:36:47.361Z,96.40
2019-05-20T11:40:51.591Z,96.00
2019-05-20T11:44:55.839Z,96.10
2019-05-20T11:49:00.056Z,96.00
2019-05-20T11:53:04.362Z,96.20
2019-05-20T11:57:09.197Z,96.10
2019-05-20T12:01:13.495Z,96.20
2019-05-20T12:05:18.353Z,96.00
2019-05-20T12:09:22.563Z,95.80
2019-05-20T12:13:26.912Z,95.90
2019-05-20T12:17:31.132Z,95.90
2019-05-20T12:21:35.326Z,95.90
2019-05-20T12:25:39.561Z,95.90
2019-05-20T12:29:43.771Z,95.90
2019-05-20T12:33:48.000Z,96.00
2019-05-20T12:37:52.219Z,96.10
2019-05-20T12:41:56.448Z,96.10
2019-05-20T12:46:00.703Z,96.00
2019-05-20T12:50:05.356Z,96.00
2019-05-20T12:54:09.580Z,95.80
2019-05-20T12:58:13.835Z,95.90
2019-05-20T13:02:18.073Z,95.80
2019-05-20T13:06:22.392Z,95.70
2019-05-20T13:10:31.442Z,95.90
2019-05-20T13:14:32.624Z,95.80
2019-05-20T13:18:36.921Z,95.60
2019-05-20T13:22:41.122Z,95.60
2019-05-20T13:26:45.628Z,95.60
2019-05-20T13:30:50.228Z,95.90
2019-05-20T13:34:54.700Z,95.40
2019-05-20T13:38:58.939Z,95.60
2019-05-20T13:43:03.145Z,95.30
2019-05-20T13:47:07.443Z,95.20
2019-05-20T13:51:11.659Z,94.80
2019-05-20T13:55:15.936Z,95.00
2019-05-20T13:59:20.184Z,95.20
2019-05-20T14:03:24.405Z,94.90
2019-05-20T14:07:28.730Z,95.00
2019-05-20T14:11:34.881Z,94.60
2019-05-20T14:15:38.959Z,94.40
2019-05-20T14:19:43.174Z,94.30
2019-05-20T14:23:47.422Z,94.40
2019-05-20T14:27:51.646Z,94.20
2019-05-20T14:31:55.968Z,94.30
2019-05-20T14:36:00.214Z,94.50
2019-05-20T14:40:04.804Z,94.00
2019-05-20T14:44:09.062Z,93.90
2019-05-20T14:48:13.278Z,93.60
2019-05-20T14:52:17.538Z,93.30
2019-05-20T14:56:21.791Z,93.60
2019-05-20T15:00:26.875Z,93.70
2019-05-20T15:04:31.098Z,93.70
2019-05-20T15:08:35.418Z,93.00
2019-05-20T15:12:39.630Z,92.80
2019-05-20T15:16:43.859Z,92.80
2019-05-20T15:20:48.087Z,92.80
2019-05-20T15:24:52.408Z,92.90
2019-05-20T15:28:56.627Z,92.90
2019-05-20T15:33:00.856Z,92.90
2019-05-20T15:37:05.219Z,92.90
2019-05-20T15:41:09.521Z,93.00
2019-05-20T15:45:13.954Z,93.10
2019-05-20T15:49:18.353Z,93.00
2019-05-20T15:53:22.678Z,93.10
2019-05-20T15:57:26.958Z,93.00
2019-05-20T16:01:31.200Z,93.00
2019-05-20T16:05:35.412Z,93.40
2019-05-20T16:09:39.619Z,93.20
2019-05-20T16:13:43.859Z,93.20
2019-05-20T16:17:48.766Z,93.20
2019-05-20T16:21:53.230Z,93.30
2019-05-20T16:25:57.497Z,93.30
2019-05-20T16:30:06.710Z,93.30
2019-05-20T16:34:07.604Z,93.30
2019-05-20T16:38:11.829Z,93.40
2019-05-20T16:42:16.041Z,93.40
2019-05-20T16:46:20.276Z,93.40
2019-05-20T16:50:24.505Z,93.40
2019-05-20T16:54:28.808Z,93.50
2019-05-20T16:58:33.019Z,93.60
2019-05-20T17:02:37.333Z,93.50
2019-05-20T17:06:41.487Z,93.50
2019-05-20T17:10:45.708Z,93.50
2019-05-20T17:14:49.924Z,93.50
2019-05-20T17:18:59.959Z,93.60
2019-05-20T17:23:04.183Z,93.60
2019-05-20T17:27:08.468Z,93.70
2019-05-20T17:31:12.679Z,93.80
2019-05-20T17:35:16.879Z,93.90
2019-05-20T17:39:21.098Z,94.00
2019-05-20T17:43:25.345Z,94.10
2019-05-20T17:47:29.588Z,94.20
2019-05-20T17:51:33.806Z,94.60
2019-05-20T17:55:38.018Z,94.20
2019-05-20T17:59:42.310Z,94.30
2019-05-20T18:03:46.564Z,94.40
2019-05-20T18:07:50.787Z,94.50
2019-05-20T18:11:55.096Z,94.40
2019-05-20T18:15:59.295Z,94.60
2019-05-20T18:20:04.159Z,94.90
2019-05-20T18:24:08.372Z,95.10
2019-05-20T18:28:12.615Z,95.20
2019-05-20T18:32:16.906Z,95.30
2019-05-20T18:36:21.137Z,95.60
2019-05-20T18:40:25.347Z,95.70
2019-05-20T18:44:29.593Z,95.80
2019-05-20T18:48:33.816Z,95.90
2019-05-20T18:52:38.034Z,95.90
2019-05-20T18:56:42.465Z,95.70
2019-05-20T19:00:46.759Z,95.90
2019-05-20T19:04:51.023Z,95.70
2019-05-20T19:08:55.358Z,95.90
2019-05-20T19:12:59.589Z,95.90
2019-05-20T19:17:03.800Z,95.80
2019-05-20T19:21:08.000Z,95.90
2019-05-20T19:25:12.432Z,96.30
2019-05-20T19:29:16.712Z,95.90
2019-05-20T19:33:21.019Z,95.90
2019-05-20T19:37:25.323Z,96.20
2019-05-20T19:41:29.529Z,97.90
2019-05-20T19:45:33.780Z,97.30
2019-05-20T19:49:38.007Z,97.10
2019-05-20T19:53:42.230Z,97.40
2019-05-20T19:57:46.456Z,97.10
2019-05-20T20:01:50.660Z,97.30
2019-05-20T20:05:54.891Z,97.40
2019-05-20T20:14:02.809Z,96.70
2019-05-20T20:18:07.065Z,96.90
2019-05-20T20:22:11.278Z,96.90
2019-05-20T20:26:15.577Z,97.00
2019-05-20T20:30:19.817Z,97.50
2019-05-20T20:34:26.218Z,98.20
2019-05-20T20:38:30.431Z,98.40
2019-05-20T20:42:34.708Z,97.90
2019-05-20T20:46:40.697Z,98.00
2019-05-20T20:50:44.861Z,98.30
2019-05-20T20:54:49.091Z,98.40
2019-05-20T20:58:53.400Z,98.30
2019-05-20T21:02:57.619Z,98.00
2019-05-20T21:07:01.856Z,97.90
2019-05-20T21:11:06.246Z,98.00
2019-05-20T21:15:11.143Z,98.00
2019-05-20T21:19:15.388Z,98.20
2019-05-20T21:23:19.611Z,98.10
2019-05-20T21:27:23.836Z,98.30
2019-05-20T21:31:28.082Z,98.10
2019-05-20T21:35:32.429Z,97.90
2019-05-20T21:39:36.653Z,97.80
2019-05-20T21:43:40.877Z,97.80
2019-05-20T21:47:49.529Z,98.10
2019-05-20T21:51:53.687Z,98.20
2019-05-20T21:55:57.895Z,97.90
2019-05-20T22:00:02.115Z,98.20
2019-05-20T22:04:06.407Z,98.80
2019-05-20T22:08:10.607Z,98.90
2019-05-20T22:12:14.830Z,98.80
2019-05-20T22:16:19.066Z,98.90
2019-05-20T22:20:23.278Z,98.90
2019-05-20T22:24:27.582Z,99.00
2019-05-20T22:28:31.772Z,99.10
2019-05-20T22:32:36.004Z,98.90
2019-05-20T22:36:40.230Z,98.80
2019-05-20T22:40:44.521Z,98.90
2019-05-20T22:44:48.770Z,99.00
2019-05-20T22:48:52.983Z,98.80
2019-05-20T22:52:57.204Z,99.00
2019-05-20T22:57:01.450Z,99.00
2019-05-20T23:01:05.662Z,99.00
2019-05-20T23:05:09.934Z,98.90
2019-05-20T23:09:14.932Z,99.70
2019-05-20T23:13:19.371Z,99.40
2019-05-20T23:17:23.611Z,99.50
2019-05-20T23:21:27.812Z,99.80
2019-05-20T23:25:32.290Z,99.30
2019-05-20T23:29:36.494Z,99.60
2019-05-20T23:33:40.708Z,99.50
2019-05-20T23:37:44.926Z,99.30
2019-05-20T23:41:49.147Z,99.90
2019-05-20T23:45:56.618Z,99.50
2019-05-20T23:50:00.836Z,99.50
2019-05-20T23:54:05.035Z,99.60
2019-05-20T23:58:09.272Z,99.90
